Terminal Aerodrome Forecast
Issued by NWS

Home | Current Version | Previous Version | Text Only | Print | Product List | Glossary Off
Versions: 1 2 3 4 5 6 7 8 9 10 11 12 13 14 15 16 17 18 19 20 21 22 23 24 25 26 27 28 29 30 31 32 33 34 35 36 37 38 39 40

000
FTUS43 KGRB 150503 AAA
TAFATW
TAF AMD
KATW 150503Z 1505/1524 16009KT P6SM -SN SCT025 OVC035
      TEMPO 1505/1506 4SM -SN BKN025
     FM150600 16008KT 1 1/2SM -SN OVC015
     FM150900 12006KT 1 1/2SM -SN OVC011
     FM151200 09009KT 1 1/2SM -SN SCT005 OVC010
      TEMPO 1514/1518 3/4SM -SN OVC005
     FM151800 07008KT 1 1/2SM -SN SCT006 OVC012
      TEMPO 1518/1522 3/4SM -SN OVC006=

USA.gov is the U.S. government's official web portal to all federal, state and local government web resources and services.